createdAt,value
2022-08-28T00:02:10.526Z,80.24
2022-08-28T00:04:40.453Z,79.55
2022-08-28T00:07:11.665Z,79.40
2022-08-28T00:09:42.515Z,79.79
2022-08-28T00:12:13.182Z,78.91
2022-08-28T00:14:44.021Z,77.99
2022-08-28T00:17:13.895Z,78.62
2022-08-28T00:19:43.839Z,78.71
2022-08-28T00:22:13.579Z,79.02
2022-08-28T00:24:48.675Z,78.76
2022-08-28T00:27:35.258Z,79.07
2022-08-28T00:30:02.542Z,80.29
2022-08-28T00:32:31.086Z,81.27
2022-08-28T00:35:02.863Z,81.07
2022-08-28T00:37:33.281Z,80.69
2022-08-28T00:40:00.780Z,81.23
2022-08-28T00:42:30.314Z,81.61
2022-08-28T00:45:01.667Z,82.75
2022-08-28T00:47:30.386Z,83.38
2022-08-28T00:50:00.396Z,83.26
2022-08-28T00:52:29.603Z,82.92
2022-08-28T00:55:07.797Z,82.46
2022-08-28T00:57:53.265Z,82.40
2022-08-28T01:00:25.977Z,82.11
2022-08-28T01:02:56.449Z,81.55
2022-08-28T01:05:33.516Z,81.36
2022-08-28T01:08:03.160Z,81.51
2022-08-28T01:10:35.094Z,82.30
2022-08-28T01:13:03.928Z,82.38
2022-08-28T01:15:36.093Z,81.99
2022-08-28T01:18:09.529Z,81.70
2022-08-28T01:20:45.619Z,82.09
2022-08-28T01:23:48.963Z,82.86
2022-08-28T01:26:18.705Z,82.76
2022-08-28T01:28:49.108Z,82.76
2022-08-28T01:31:18.685Z,82.94
2022-08-28T01:33:48.025Z,82.77
2022-08-28T01:36:19.896Z,82.45
2022-08-28T01:38:54.037Z,83.23
2022-08-28T01:41:22.872Z,83.95
2022-08-28T01:43:52.898Z,83.84
2022-08-28T01:46:23.315Z,84.10
2022-08-28T01:48:54.298Z,83.64
2022-08-28T01:51:24.883Z,83.51
2022-08-28T01:53:53.339Z,83.62
2022-08-28T01:56:20.946Z,83.61
2022-08-28T01:58:51.067Z,83.58
2022-08-28T02:01:22.416Z,83.81
2022-08-28T02:03:53.985Z,83.63
2022-08-28T02:06:26.697Z,83.20
2022-08-28T02:08:56.939Z,83.42
2022-08-28T02:11:26.197Z,83.48
2022-08-28T02:13:57.025Z,83.51
2022-08-28T02:16:26.859Z,83.79
2022-08-28T02:18:57.397Z,84.29
2022-08-28T02:21:25.788Z,84.84
2022-08-28T02:24:02.880Z,84.49
2022-08-28T02:26:33.259Z,84.76
2022-08-28T02:29:03.349Z,83.98
2022-08-28T02:31:33.669Z,83.75
2022-08-28T02:34:01.169Z,83.09
2022-08-28T02:36:30.815Z,83.12
2022-08-28T02:38:58.763Z,82.98
2022-08-28T02:41:27.101Z,83.44
2022-08-28T02:43:56.067Z,83.12
2022-08-28T02:46:26.217Z,83.40
2022-08-28T02:48:59.412Z,82.70
2022-08-28T02:51:34.345Z,81.79
2022-08-28T02:54:03.887Z,81.81
2022-08-28T02:56:33.833Z,82.20
2022-08-28T02:59:03.747Z,82.52
2022-08-28T03:01:41.095Z,82.25
2022-08-28T03:04:11.447Z,82.73
2022-08-28T03:06:39.685Z,82.97
2022-08-28T03:09:08.977Z,83.03
2022-08-28T03:11:37.840Z,82.91
2022-08-28T03:14:05.026Z,83.06
2022-08-28T03:16:34.398Z,83.05
2022-08-28T03:19:01.718Z,82.64
2022-08-28T03:21:31.255Z,82.45
2022-08-28T03:23:58.870Z,82.71
2022-08-28T03:26:26.875Z,82.60
2022-08-28T03:28:56.218Z,82.86
2022-08-28T03:31:31.665Z,82.91
2022-08-28T03:33:58.725Z,82.42
2022-08-28T03:36:30.908Z,82.88
2022-08-28T03:39:03.355Z,83.54
2022-08-28T03:41:34.219Z,84.07
2022-08-28T03:44:03.157Z,84.86
2022-08-28T03:46:35.322Z,84.86
2022-08-28T03:49:04.345Z,85.58
2022-08-28T03:51:35.155Z,84.33
2022-08-28T03:54:04.225Z,84.03
2022-08-28T03:56:34.388Z,84.43
2022-08-28T03:59:13.289Z,85.14
2022-08-28T04:01:41.215Z,84.63
2022-08-28T04:04:08.547Z,84.10
2022-08-28T04:06:36.148Z,83.91
2022-08-28T04:09:08.620Z,83.78
2022-08-28T04:11:44.643Z,83.97
2022-08-28T04:14:13.197Z,83.79
2022-08-28T04:16:43.901Z,84.21
2022-08-28T04:19:12.605Z,85.08
2022-08-28T04:21:40.058Z,85.26
2022-08-28T04:24:10.796Z,85.28
2022-08-28T04:26:41.179Z,85.08
2022-08-28T04:29:11.342Z,85.02
2022-08-28T04:31:40.107Z,84.59
2022-08-28T04:34:13.496Z,84.69
2022-08-28T04:36:43.580Z,84.99
2022-08-28T04:39:12.289Z,84.80
2022-08-28T04:41:42.839Z,85.98
2022-08-28T04:44:13.259Z,85.74
2022-08-28T04:46:48.202Z,85.82
2022-08-28T04:49:26.145Z,85.87
2022-08-28T04:51:55.389Z,85.27
2022-08-28T04:54:32.619Z,85.14
2022-08-28T04:57:10.699Z,85.32
2022-08-28T04:59:40.546Z,84.96
2022-08-28T05:02:12.087Z,85.54
2022-08-28T05:04:40.369Z,86.58
2022-08-28T05:07:10.468Z,87.07
2022-08-28T05:09:39.595Z,87.56
2022-08-28T05:12:08.436Z,88.57
2022-08-28T05:14:38.984Z,88.31
2022-08-28T05:17:09.476Z,87.47
2022-08-28T05:19:38.695Z,87.94
2022-08-28T05:22:06.123Z,88.46
2022-08-28T05:24:33.950Z,87.99
2022-08-28T05:27:04.675Z,87.90
2022-08-28T05:29:33.596Z,88.00
2022-08-28T05:32:01.440Z,86.97
2022-08-28T05:34:32.757Z,85.58
2022-08-28T05:37:03.902Z,85.87
2022-08-28T05:39:33.535Z,85.57
2022-08-28T05:42:03.409Z,86.23
2022-08-28T05:44:32.729Z,86.13
2022-08-28T05:47:00.167Z,85.51
2022-08-28T05:49:29.397Z,85.13
2022-08-28T05:52:05.835Z,85.08
2022-08-28T05:54:34.501Z,84.42
2022-08-28T05:57:03.790Z,85.06
2022-08-28T05:59:33.706Z,85.84
2022-08-28T06:02:04.444Z,86.19
2022-08-28T06:04:33.155Z,85.69
2022-08-28T06:07:03.819Z,85.11
2022-08-28T06:09:33.243Z,84.81
2022-08-28T06:12:05.818Z,83.20
2022-08-28T06:14:35.099Z,82.68
2022-08-28T06:17:05.120Z,81.64
2022-08-28T06:19:38.268Z,80.68
2022-08-28T06:22:14.871Z,81.91
2022-08-28T06:24:44.467Z,80.98
2022-08-28T06:27:11.981Z,79.69
2022-08-28T06:29:40.111Z,79.65
2022-08-28T06:32:17.794Z,80.00
2022-08-28T06:34:45.099Z,78.02
2022-08-28T06:37:14.448Z,78.46
2022-08-28T06:39:44.068Z,77.68
2022-08-28T06:42:14.558Z,78.47
2022-08-28T06:44:45.648Z,75.64
2022-08-28T06:47:15.511Z,74.37
2022-08-28T06:49:45.101Z,73.55
2022-08-28T06:52:14.687Z,74.43
2022-08-28T06:54:50.439Z,75.14
2022-08-28T06:57:26.586Z,74.40
2022-08-28T06:59:58.864Z,75.28
2022-08-28T07:02:29.299Z,73.71
2022-08-28T07:04:58.640Z,73.91
2022-08-28T07:10:07.420Z,77.97
2022-08-28T07:12:36.139Z,77.87
2022-08-28T07:15:05.052Z,79.17
2022-08-28T07:17:34.280Z,78.77
2022-08-28T07:20:09.499Z,78.78
2022-08-28T07:22:41.173Z,79.15
2022-08-28T07:25:11.179Z,78.90
2022-08-28T07:27:39.689Z,79.15
2022-08-28T07:30:11.737Z,80.21
2022-08-28T07:32:43.259Z,80.74
2022-08-28T07:35:11.100Z,79.83
2022-08-28T07:37:40.611Z,78.99
2022-08-28T07:40:14.174Z,75.42
2022-08-28T07:43:01.842Z,73.84
2022-08-28T07:45:32.923Z,71.25
2022-08-28T07:48:00.510Z,69.61
2022-08-28T07:50:28.528Z,69.34
2022-08-28T07:52:59.098Z,65.74
2022-08-28T07:55:29.738Z,63.27
2022-08-28T07:57:58.060Z,63.29
2022-08-28T08:00:25.178Z,64.63
2022-08-28T08:02:55.777Z,64.02
2022-08-28T08:05:25.908Z,64.94
2022-08-28T08:07:56.146Z,66.76
2022-08-28T08:10:26.497Z,66.14
2022-08-28T08:13:03.587Z,65.82
2022-08-28T08:15:35.358Z,67.07
2022-08-28T08:18:03.560Z,67.14
2022-08-28T08:20:33.661Z,67.09
2022-08-28T08:23:00.850Z,67.51
2022-08-28T08:25:29.348Z,65.27
2022-08-28T08:28:03.910Z,62.14
2022-08-28T08:30:33.309Z,61.75
2022-08-28T08:33:00.338Z,58.41
2022-08-28T08:35:29.886Z,58.11
2022-08-28T08:38:02.782Z,59.02
2022-08-28T08:40:31.610Z,60.15
2022-08-28T08:43:14.676Z,60.31
2022-08-28T08:45:46.758Z,54.60
2022-08-28T08:48:28.815Z,55.01
2022-08-28T08:51:04.139Z,54.27
2022-08-28T08:54:04.562Z,54.12
2022-08-28T08:56:34.595Z,53.28
2022-08-28T08:59:11.470Z,52.44
2022-08-28T09:02:09.554Z,51.60
2022-08-28T09:05:15.659Z,54.26
2022-08-28T09:08:07.120Z,52.11
2022-08-28T09:10:53.500Z,51.66
2022-08-28T09:13:54.973Z,53.07
2022-08-28T09:16:42.059Z,50.12
2022-08-28T09:19:15.605Z,50.01
2022-08-28T09:21:46.550Z,50.63
2022-08-28T09:24:33.747Z,48.35
2022-08-28T09:27:39.325Z,48.48
2022-08-28T09:30:11.658Z,46.19
2022-08-28T09:32:45.275Z,47.43
2022-08-28T09:35:34.379Z,47.16
2022-08-28T09:38:22.005Z,46.09
2022-08-28T09:41:34.932Z,44.93
2022-08-28T09:44:03.664Z,45.52
2022-08-28T09:46:35.156Z,44.13
2022-08-28T09:49:26.443Z,46.58
2022-08-28T09:51:57.020Z,46.16
2022-08-28T09:54:45.746Z,45.76
2022-08-28T09:57:14.688Z,44.59
2022-08-28T10:00:06.844Z,47.16
2022-08-28T10:03:24.190Z,45.84
2022-08-28T10:06:33.098Z,46.98
2022-08-28T10:09:34.538Z,47.45
2022-08-28T10:12:39.098Z,47.41
2022-08-28T10:15:43.328Z,46.24
2022-08-28T10:18:51.148Z,46.46
2022-08-28T10:21:46.091Z,47.48
2022-08-28T10:24:55.435Z,47.27
2022-08-28T10:28:03.569Z,49.28
2022-08-28T10:30:40.599Z,46.69
2022-08-28T10:33:39.277Z,46.25
2022-08-28T10:36:33.881Z,47.75
2022-08-28T10:39:28.945Z,48.45
2022-08-28T10:42:05.946Z,46.02
2022-08-28T10:45:05.576Z,46.69
2022-08-28T10:47:37.159Z,48.16
2022-08-28T10:50:32.871Z,46.30
2022-08-28T10:53:07.630Z,47.76
2022-08-28T10:55:59.673Z,49.28
2022-08-28T10:58:57.377Z,48.95
2022-08-28T11:01:35.481Z,47.93
2022-08-28T11:04:13.660Z,47.31
2022-08-28T11:06:48.452Z,47.00
2022-08-28T11:09:39.928Z,46.66
2022-08-28T11:12:20.297Z,43.97
2022-08-28T11:14:51.264Z,45.39
2022-08-28T11:17:33.346Z,43.59
2022-08-28T11:20:14.607Z,41.53
2022-08-28T11:23:30.376Z,42.92
2022-08-28T11:26:18.458Z,44.13
2022-08-28T11:28:49.220Z,46.91
2022-08-28T11:31:19.272Z,47.95
2022-08-28T11:33:59.341Z,49.86
2022-08-28T11:36:35.657Z,51.50
2022-08-28T11:39:19.948Z,51.81
2022-08-28T11:42:14.777Z,50.91
2022-08-28T11:44:49.796Z,52.13
2022-08-28T11:47:54.956Z,51.95
2022-08-28T11:50:30.218Z,52.88
2022-08-28T11:53:40.416Z,51.45
2022-08-28T11:57:04.360Z,52.42
2022-08-28T11:59:54.918Z,53.00
2022-08-28T12:02:40.725Z,55.24
2022-08-28T12:05:19.432Z,57.64
2022-08-28T12:07:50.460Z,58.26
2022-08-28T12:10:27.657Z,62.13
2022-08-28T12:13:04.434Z,59.32
2022-08-28T12:15:43.173Z,59.60
2022-08-28T12:18:39.301Z,57.07
2022-08-28T12:21:14.994Z,53.96
2022-08-28T12:23:58.867Z,53.94
2022-08-28T12:26:39.975Z,54.16
2022-08-28T12:29:39.218Z,55.50
2022-08-28T12:32:45.788Z,53.35
2022-08-28T12:35:30.197Z,55.61
2022-08-28T12:38:00.134Z,54.33
2022-08-28T12:40:56.108Z,56.85
2022-08-28T12:46:44.276Z,55.37
2022-08-28T12:49:49.636Z,53.43
2022-08-28T12:52:21.566Z,54.07
2022-08-28T12:54:51.714Z,53.68
2022-08-28T12:57:22.205Z,53.92
2022-08-28T12:59:53.205Z,53.95
2022-08-28T13:02:34.467Z,51.67
2022-08-28T13:05:07.868Z,53.29
2022-08-28T13:07:40.748Z,54.00
2022-08-28T13:10:31.137Z,53.97
2022-08-28T13:13:21.541Z,51.97
2022-08-28T13:16:05.634Z,52.39
2022-08-28T13:19:14.206Z,51.78
2022-08-28T13:21:59.561Z,48.76
2022-08-28T13:24:45.982Z,47.83
2022-08-28T13:27:21.650Z,48.70
2022-08-28T13:30:01.331Z,46.27
2022-08-28T13:32:40.596Z,47.40
2022-08-28T13:35:28.177Z,47.96
2022-08-28T13:38:10.645Z,46.17
2022-08-28T13:41:01.665Z,47.70
2022-08-28T13:43:44.133Z,47.40
2022-08-28T13:46:14.339Z,50.18
2022-08-28T13:48:44.859Z,51.04
2022-08-28T13:51:20.809Z,52.59
2022-08-28T13:53:51.073Z,55.44
2022-08-28T13:56:21.905Z,56.78
2022-08-28T13:58:57.719Z,56.03
2022-08-28T14:01:49.561Z,56.68
2022-08-28T14:04:38.355Z,58.22
2022-08-28T14:07:16.201Z,57.75
2022-08-28T14:09:44.537Z,55.60
2022-08-28T14:12:14.884Z,55.31
2022-08-28T14:14:44.758Z,55.29
2022-08-28T14:17:13.555Z,56.90
2022-08-28T14:19:40.966Z,56.23
2022-08-28T14:22:10.045Z,55.46
2022-08-28T14:24:37.890Z,54.95
2022-08-28T14:27:06.035Z,54.10
2022-08-28T14:29:34.874Z,54.53
2022-08-28T14:32:04.822Z,53.51
2022-08-28T14:34:33.178Z,52.06
2022-08-28T14:37:04.354Z,51.30
2022-08-28T14:39:32.755Z,52.15
2022-08-28T14:41:59.806Z,52.05
2022-08-28T14:44:29.714Z,50.48
2022-08-28T14:46:58.105Z,51.85
2022-08-28T14:49:29.154Z,52.09
2022-08-28T14:51:59.783Z,51.35
2022-08-28T14:54:29.403Z,50.71
2022-08-28T14:56:59.106Z,51.18
2022-08-28T14:59:30.231Z,52.84
2022-08-28T15:02:03.393Z,52.78
2022-08-28T15:04:36.274Z,53.45
2022-08-28T15:07:11.447Z,50.12
2022-08-28T15:09:41.525Z,51.81
2022-08-28T15:12:11.719Z,48.91
2022-08-28T15:14:51.386Z,49.03
2022-08-28T15:17:34.444Z,48.65
2022-08-28T15:20:05.106Z,48.71
2022-08-28T15:22:34.050Z,49.01
2022-08-28T15:25:04.616Z,48.97
2022-08-28T15:27:33.624Z,48.18
2022-08-28T15:30:02.102Z,47.88
2022-08-28T15:32:32.180Z,48.90
2022-08-28T15:35:00.525Z,48.82
2022-08-28T15:37:31.649Z,48.34
2022-08-28T15:40:22.496Z,47.39
2022-08-28T15:42:49.966Z,46.83
2022-08-28T15:45:19.314Z,49.27
2022-08-28T15:47:49.233Z,48.99
2022-08-28T15:50:19.870Z,49.14
2022-08-28T15:52:49.714Z,48.87
2022-08-28T15:55:24.485Z,49.27
2022-08-28T15:57:51.564Z,49.27
2022-08-28T16:00:19.241Z,49.70
2022-08-28T16:02:49.571Z,49.40
2022-08-28T16:05:20.066Z,50.09
2022-08-28T16:07:49.459Z,49.48
2022-08-28T16:10:20.114Z,49.50
2022-08-28T16:13:11.048Z,51.35
2022-08-28T16:15:40.147Z,52.54
2022-08-28T16:18:10.251Z,52.98
2022-08-28T16:20:41.725Z,54.05
2022-08-28T16:23:10.009Z,54.23
2022-08-28T16:25:37.355Z,55.45
2022-08-28T16:28:07.443Z,56.26
2022-08-28T16:30:43.860Z,56.68
2022-08-28T16:33:14.177Z,56.76
2022-08-28T16:35:49.148Z,56.68
2022-08-28T16:38:18.596Z,56.27
2022-08-28T16:40:49.764Z,56.16
2022-08-28T16:43:17.456Z,56.68
2022-08-28T16:45:47.666Z,57.09
2022-08-28T16:48:15.635Z,57.91
2022-08-28T16:50:44.582Z,57.92
2022-08-28T16:53:13.793Z,58.92
2022-08-28T16:55:54.116Z,58.75
2022-08-28T16:58:24.439Z,59.77
2022-08-28T17:00:54.971Z,59.27
2022-08-28T17:03:26.915Z,59.17
2022-08-28T17:05:56.617Z,60.19
2022-08-28T17:08:26.525Z,61.51
2022-08-28T17:10:56.108Z,62.25
2022-08-28T17:13:25.316Z,62.67
2022-08-28T17:15:53.656Z,62.99
2022-08-28T17:18:21.154Z,63.63
2022-08-28T17:21:19.690Z,64.88
2022-08-28T17:23:47.608Z,65.71
2022-08-28T17:26:15.633Z,66.44
2022-08-28T17:28:44.405Z,66.41
2022-08-28T17:31:14.867Z,66.24
2022-08-28T17:33:44.808Z,65.94
2022-08-28T17:36:28.922Z,66.50
2022-08-28T17:39:02.529Z,67.05
2022-08-28T17:41:29.910Z,67.42
2022-08-28T17:43:59.447Z,68.41
2022-08-28T17:46:27.609Z,68.15
2022-08-28T17:48:56.471Z,68.26
2022-08-28T17:51:43.087Z,68.73
2022-08-28T17:54:19.316Z,69.22
2022-08-28T17:56:56.517Z,68.78
2022-08-28T17:59:25.457Z,68.80
2022-08-28T18:02:16.834Z,69.83
2022-08-28T18:04:44.809Z,69.42
2022-08-28T18:07:13.376Z,70.21
2022-08-28T18:09:41.324Z,70.26
2022-08-28T18:12:12.544Z,70.70
2022-08-28T18:14:41.324Z,69.78
2022-08-28T18:17:11.642Z,70.90
2022-08-28T18:19:45.317Z,70.77
2022-08-28T18:22:14.946Z,71.78
2022-08-28T18:24:45.661Z,72.61
2022-08-28T18:27:14.195Z,72.71
2022-08-28T18:29:41.795Z,73.08
2022-08-28T18:32:10.367Z,73.38
2022-08-28T18:34:40.107Z,73.15
2022-08-28T18:37:10.357Z,72.90
2022-08-28T18:39:40.204Z,72.65
2022-08-28T18:42:11.647Z,73.49
2022-08-28T18:44:39.112Z,73.91
2022-08-28T18:47:10.495Z,73.67
2022-08-28T18:49:42.346Z,73.89
2022-08-28T18:52:10.578Z,73.95
2022-08-28T18:54:40.757Z,74.30
2022-08-28T18:57:10.902Z,74.34
2022-08-28T18:59:40.561Z,74.48
2022-08-28T19:02:11.069Z,74.36
2022-08-28T19:04:42.157Z,74.83
2022-08-28T19:07:14.124Z,75.61
2022-08-28T19:09:45.401Z,74.79
2022-08-28T19:12:15.207Z,75.59
2022-08-28T19:14:44.899Z,76.26
2022-08-28T19:17:19.137Z,75.71
2022-08-28T19:19:50.909Z,75.46
2022-08-28T19:22:19.954Z,75.58
2022-08-28T19:24:48.240Z,75.98
2022-08-28T19:27:16.914Z,75.43
2022-08-28T19:29:45.758Z,75.02
2022-08-28T19:32:16.818Z,75.17
2022-08-28T19:34:46.651Z,76.52
2022-08-28T19:37:16.361Z,77.23
2022-08-28T19:39:56.030Z,77.21
2022-08-28T19:42:30.848Z,78.28
2022-08-28T19:45:00.391Z,78.31
2022-08-28T19:47:35.418Z,78.95
2022-08-28T19:50:05.706Z,79.63
2022-08-28T19:52:36.616Z,79.96
2022-08-28T19:55:07.286Z,79.31
2022-08-28T19:57:44.520Z,79.04
2022-08-28T20:00:16.230Z,79.07
2022-08-28T20:02:46.201Z,79.14
2022-08-28T20:05:13.323Z,78.91
2022-08-28T20:07:41.899Z,79.28
2022-08-28T20:10:14.202Z,79.29
2022-08-28T20:12:48.400Z,79.49
2022-08-28T20:15:19.304Z,79.70
2022-08-28T20:17:50.351Z,80.00
2022-08-28T20:20:22.431Z,80.50
2022-08-28T20:22:54.388Z,81.49
2022-08-28T20:25:25.075Z,82.55
2022-08-28T20:27:59.532Z,83.50
2022-08-28T20:30:34.989Z,83.40
2022-08-28T20:33:05.005Z,82.78
2022-08-28T20:35:35.157Z,82.43
2022-08-28T20:38:04.108Z,83.15
2022-08-28T20:40:35.142Z,83.68
2022-08-28T20:43:02.600Z,82.62
2022-08-28T20:45:32.980Z,82.80
2022-08-28T20:48:00.435Z,82.66
2022-08-28T20:50:29.555Z,83.05
2022-08-28T20:52:56.657Z,83.65
2022-08-28T20:55:26.756Z,84.03
2022-08-28T20:57:55.873Z,83.36
2022-08-28T21:00:26.351Z,83.60
2022-08-28T21:02:55.683Z,83.70
2022-08-28T21:05:25.211Z,84.58
2022-08-28T21:07:55.148Z,84.38
2022-08-28T21:10:22.403Z,84.14
2022-08-28T21:12:50.680Z,84.06
2022-08-28T21:15:18.956Z,83.55
2022-08-28T21:17:49.915Z,84.15
2022-08-28T21:20:22.026Z,84.07
2022-08-28T21:22:59.957Z,84.51
2022-08-28T21:25:29.897Z,84.53
2022-08-28T21:27:58.356Z,85.12
2022-08-28T21:30:34.884Z,84.84
2022-08-28T21:33:04.194Z,84.41
2022-08-28T21:35:34.986Z,84.80
2022-08-28T21:38:04.520Z,85.38
2022-08-28T21:40:34.633Z,85.60
2022-08-28T21:43:05.453Z,85.90
2022-08-28T21:45:34.439Z,86.23
2022-08-28T21:48:05.481Z,85.91
2022-08-28T21:50:36.670Z,85.52
2022-08-28T21:53:05.455Z,85.04
2022-08-28T21:55:32.516Z,85.21
2022-08-28T21:57:59.600Z,84.82
2022-08-28T22:00:29.594Z,84.70
2022-08-28T22:02:59.802Z,85.31
2022-08-28T22:05:33.090Z,84.77
2022-08-28T22:08:03.489Z,84.93
2022-08-28T22:10:35.521Z,85.11
2022-08-28T22:13:09.144Z,84.66
2022-08-28T22:15:36.309Z,84.85
2022-08-28T22:18:07.671Z,84.07
2022-08-28T22:21:02.681Z,84.32
2022-08-28T22:23:35.887Z,85.00
2022-08-28T22:26:11.115Z,85.13
2022-08-28T22:28:38.741Z,84.36
2022-08-28T22:31:06.696Z,85.10
2022-08-28T22:33:36.513Z,85.68
2022-08-28T22:36:04.937Z,85.53
2022-08-28T22:38:33.880Z,86.20
2022-08-28T22:41:03.262Z,86.95
2022-08-28T22:43:30.574Z,87.48
2022-08-28T22:45:59.877Z,87.96
2022-08-28T22:48:30.976Z,87.95
2022-08-28T22:51:06.635Z,87.25
2022-08-28T22:53:36.675Z,87.04
2022-08-28T22:56:14.625Z,87.14
2022-08-28T22:58:52.019Z,85.80
2022-08-28T23:01:25.549Z,85.60
2022-08-28T23:03:55.246Z,85.39
2022-08-28T23:06:25.237Z,85.40
2022-08-28T23:08:55.292Z,85.49
2022-08-28T23:11:26.269Z,85.38
2022-08-28T23:13:55.996Z,85.58
2022-08-28T23:16:25.839Z,86.18
2022-08-28T23:19:13.535Z,86.95
2022-08-28T23:21:45.755Z,86.59
2022-08-28T23:24:16.285Z,86.39
2022-08-28T23:26:53.614Z,86.13
2022-08-28T23:29:21.849Z,86.24
2022-08-28T23:31:51.280Z,86.47
2022-08-28T23:34:20.280Z,86.79
2022-08-28T23:36:51.330Z,87.35
2022-08-28T23:39:19.305Z,87.49
2022-08-28T23:41:51.481Z,87.21
2022-08-28T23:44:23.295Z,87.42
2022-08-28T23:46:53.004Z,87.00
2022-08-28T23:49:26.347Z,86.88
2022-08-28T23:51:56.770Z,86.94
2022-08-28T23:54:26.195Z,87.85
2022-08-28T23:56:55.454Z,87.56
2022-08-28T23:59:26.504Z,87.33
